sensor_id;sensor_type;location;lat;lon;timestamp;P1;durP1;ratioP1;P2;durP2;ratioP2
4112;SDS011;2070;51.042;7.056;2023-02-15T00:02:17;43.40;;;15.60;;
4112;SDS011;2070;51.042;7.056;2023-02-15T00:04:44;40.40;;;15.77;;
4112;SDS011;2070;51.042;7.056;2023-02-15T00:07:16;42.17;;;16.80;;
4112;SDS011;2070;51.042;7.056;2023-02-15T00:09:41;32.53;;;14.53;;
4112;SDS011;2070;51.042;7.056;2023-02-15T00:12:06;34.30;;;15.20;;
4112;SDS011;2070;51.042;7.056;2023-02-15T00:14:32;31.80;;;13.87;;
4112;SDS011;2070;51.042;7.056;2023-02-15T00:16:57;32.70;;;15.40;;
4112;SDS011;2070;51.042;7.056;2023-02-15T00:19:24;36.67;;;15.33;;
4112;SDS011;2070;51.042;7.056;2023-02-15T00:21:50;34.37;;;15.67;;
4112;SDS011;2070;51.042;7.056;2023-02-15T00:24:15;31.67;;;15.87;;
4112;SDS011;2070;51.042;7.056;2023-02-15T00:26:41;35.07;;;13.33;;
4112;SDS011;2070;51.042;7.056;2023-02-15T00:29:07;48.33;;;17.80;;
4112;SDS011;2070;51.042;7.056;2023-02-15T00:31:33;35.87;;;15.07;;
4112;SDS011;2070;51.042;7.056;2023-02-15T00:34:02;33.93;;;15.57;;
4112;SDS011;2070;51.042;7.056;2023-02-15T00:36:28;32.47;;;14.60;;
4112;SDS011;2070;51.042;7.056;2023-02-15T00:38:53;43.03;;;16.33;;
4112;SDS011;2070;51.042;7.056;2023-02-15T00:41:18;51.20;;;17.77;;
4112;SDS011;2070;51.042;7.056;2023-02-15T00:43:43;46.03;;;15.70;;
4112;SDS011;2070;51.042;7.056;2023-02-15T00:46:09;36.70;;;14.33;;
4112;SDS011;2070;51.042;7.056;2023-02-15T00:48:34;45.20;;;16.60;;
4112;SDS011;2070;51.042;7.056;2023-02-15T00:50:59;33.80;;;14.73;;
4112;SDS011;2070;51.042;7.056;2023-02-15T00:53:25;35.40;;;15.30;;
4112;SDS011;2070;51.042;7.056;2023-02-15T00:55:51;36.33;;;15.43;;
4112;SDS011;2070;51.042;7.056;2023-02-15T00:58:16;42.93;;;15.90;;
4112;SDS011;2070;51.042;7.056;2023-02-15T01:00:42;46.37;;;17.33;;
4112;SDS011;2070;51.042;7.056;2023-02-15T01:03:08;42.23;;;16.03;;
4112;SDS011;2070;51.042;7.056;2023-02-15T01:05:33;48.70;;;16.40;;
4112;SDS011;2070;51.042;7.056;2023-02-15T01:07:59;24.80;;;12.97;;
4112;SDS011;2070;51.042;7.056;2023-02-15T01:10:25;37.10;;;16.80;;
4112;SDS011;2070;51.042;7.056;2023-02-15T01:12:51;33.63;;;14.80;;
4112;SDS011;2070;51.042;7.056;2023-02-15T01:15:33;40.97;;;16.00;;
4112;SDS011;2070;51.042;7.056;2023-02-15T01:17:58;36.83;;;16.37;;
4112;SDS011;2070;51.042;7.056;2023-02-15T01:20:25;34.50;;;14.10;;
4112;SDS011;2070;51.042;7.056;2023-02-15T01:22:51;41.07;;;16.80;;
4112;SDS011;2070;51.042;7.056;2023-02-15T01:25:17;44.50;;;17.50;;
4112;SDS011;2070;51.042;7.056;2023-02-15T01:27:43;37.83;;;15.57;;
4112;SDS011;2070;51.042;7.056;2023-02-15T01:30:09;45.50;;;19.17;;
4112;SDS011;2070;51.042;7.056;2023-02-15T01:32:34;43.93;;;16.60;;
4112;SDS011;2070;51.042;7.056;2023-02-15T01:34:59;38.23;;;17.23;;
4112;SDS011;2070;51.042;7.056;2023-02-15T01:37:25;34.10;;;16.40;;
4112;SDS011;2070;51.042;7.056;2023-02-15T01:39:50;38.03;;;15.73;;
4112;SDS011;2070;51.042;7.056;2023-02-15T01:42:20;38.93;;;16.10;;
4112;SDS011;2070;51.042;7.056;2023-02-15T01:47:11;34.07;;;14.63;;
4112;SDS011;2070;51.042;7.056;2023-02-15T01:49:37;36.77;;;14.70;;
4112;SDS011;2070;51.042;7.056;2023-02-15T01:52:05;42.27;;;15.87;;
4112;SDS011;2070;51.042;7.056;2023-02-15T01:54:32;38.30;;;13.83;;
4112;SDS011;2070;51.042;7.056;2023-02-15T01:57:02;39.63;;;16.73;;
4112;SDS011;2070;51.042;7.056;2023-02-15T01:59:28;41.73;;;17.00;;
4112;SDS011;2070;51.042;7.056;2023-02-15T02:01:54;30.57;;;15.07;;
4112;SDS011;2070;51.042;7.056;2023-02-15T02:06:52;37.47;;;14.23;;
4112;SDS011;2070;51.042;7.056;2023-02-15T02:09:18;34.90;;;15.10;;
4112;SDS011;2070;51.042;7.056;2023-02-15T02:11:44;32.90;;;15.37;;
4112;SDS011;2070;51.042;7.056;2023-02-15T02:14:10;34.93;;;15.40;;
4112;SDS011;2070;51.042;7.056;2023-02-15T02:19:17;46.03;;;16.77;;
4112;SDS011;2070;51.042;7.056;2023-02-15T02:32:28;36.20;;;15.97;;
4112;SDS011;2070;51.042;7.056;2023-02-15T02:42:38;35.37;;;16.00;;
4112;SDS011;2070;51.042;7.056;2023-02-15T02:45:15;24.70;;;13.80;;
4112;SDS011;2070;51.042;7.056;2023-02-15T02:47:53;39.80;;;16.30;;
4112;SDS011;2070;51.042;7.056;2023-02-15T02:50:22;36.77;;;15.23;;
4112;SDS011;2070;51.042;7.056;2023-02-15T02:52:49;28.83;;;13.90;;
4112;SDS011;2070;51.042;7.056;2023-02-15T03:00:17;41.73;;;16.20;;
4112;SDS011;2070;51.042;7.056;2023-02-15T03:02:43;49.87;;;19.60;;
4112;SDS011;2070;51.042;7.056;2023-02-15T03:05:11;33.03;;;15.47;;
4112;SDS011;2070;51.042;7.056;2023-02-15T03:07:38;36.03;;;17.10;;
4112;SDS011;2070;51.042;7.056;2023-02-15T03:10:04;43.83;;;15.77;;
4112;SDS011;2070;51.042;7.056;2023-02-15T03:12:34;34.53;;;13.73;;
4112;SDS011;2070;51.042;7.056;2023-02-15T03:17:25;38.60;;;14.53;;
4112;SDS011;2070;51.042;7.056;2023-02-15T03:19:52;29.27;;;14.80;;
4112;SDS011;2070;51.042;7.056;2023-02-15T03:22:19;46.97;;;17.43;;
4112;SDS011;2070;51.042;7.056;2023-02-15T03:25:05;42.67;;;16.97;;
4112;SDS011;2070;51.042;7.056;2023-02-15T03:27:32;42.33;;;17.50;;
4112;SDS011;2070;51.042;7.056;2023-02-15T03:29:58;46.17;;;17.93;;
4112;SDS011;2070;51.042;7.056;2023-02-15T03:32:24;38.50;;;15.77;;
4112;SDS011;2070;51.042;7.056;2023-02-15T03:34:50;41.30;;;18.00;;
4112;SDS011;2070;51.042;7.056;2023-02-15T03:37:19;50.63;;;16.40;;
4112;SDS011;2070;51.042;7.056;2023-02-15T03:39:49;38.40;;;16.67;;
4112;SDS011;2070;51.042;7.056;2023-02-15T03:44:46;29.30;;;14.87;;
4112;SDS011;2070;51.042;7.056;2023-02-15T03:47:17;33.60;;;16.23;;
4112;SDS011;2070;51.042;7.056;2023-02-15T03:49:46;34.80;;;16.53;;
4112;SDS011;2070;51.042;7.056;2023-02-15T03:52:13;44.80;;;15.97;;
4112;SDS011;2070;51.042;7.056;2023-02-15T03:54:39;38.63;;;16.20;;
4112;SDS011;2070;51.042;7.056;2023-02-15T03:57:25;42.60;;;17.90;;
4112;SDS011;2070;51.042;7.056;2023-02-15T04:00:17;39.43;;;14.87;;
4112;SDS011;2070;51.042;7.056;2023-02-15T04:03:09;44.17;;;17.07;;
4112;SDS011;2070;51.042;7.056;2023-02-15T04:05:35;37.63;;;16.17;;
4112;SDS011;2070;51.042;7.056;2023-02-15T04:08:01;47.40;;;16.93;;
4112;SDS011;2070;51.042;7.056;2023-02-15T04:10:26;46.73;;;17.77;;
4112;SDS011;2070;51.042;7.056;2023-02-15T04:13:10;36.37;;;15.40;;
4112;SDS011;2070;51.042;7.056;2023-02-15T04:15:35;40.43;;;16.13;;
4112;SDS011;2070;51.042;7.056;2023-02-15T04:18:19;45.10;;;16.63;;
4112;SDS011;2070;51.042;7.056;2023-02-15T04:20:44;50.33;;;19.70;;
4112;SDS011;2070;51.042;7.056;2023-02-15T04:23:28;41.53;;;18.07;;
4112;SDS011;2070;51.042;7.056;2023-02-15T04:26:12;39.33;;;15.20;;
4112;SDS011;2070;51.042;7.056;2023-02-15T04:28:37;42.93;;;17.47;;
4112;SDS011;2070;51.042;7.056;2023-02-15T04:31:02;46.73;;;14.93;;
4112;SDS011;2070;51.042;7.056;2023-02-15T04:33:28;36.50;;;15.93;;
4112;SDS011;2070;51.042;7.056;2023-02-15T04:35:53;38.53;;;15.23;;
4112;SDS011;2070;51.042;7.056;2023-02-15T04:38:18;41.80;;;17.80;;
4112;SDS011;2070;51.042;7.056;2023-02-15T04:40:43;58.30;;;15.80;;
4112;SDS011;2070;51.042;7.056;2023-02-15T04:43:08;38.33;;;16.93;;
4112;SDS011;2070;51.042;7.056;2023-02-15T04:45:34;55.23;;;19.27;;
4112;SDS011;2070;51.042;7.056;2023-02-15T04:47:59;41.40;;;16.83;;
4112;SDS011;2070;51.042;7.056;2023-02-15T04:50:24;31.47;;;15.33;;
4112;SDS011;2070;51.042;7.056;2023-02-15T04:52:49;55.47;;;18.70;;
4112;SDS011;2070;51.042;7.056;2023-02-15T04:55:14;42.30;;;17.67;;
4112;SDS011;2070;51.042;7.056;2023-02-15T04:57:40;51.10;;;17.73;;
4112;SDS011;2070;51.042;7.056;2023-02-15T05:00:05;50.07;;;17.50;;
4112;SDS011;2070;51.042;7.056;2023-02-15T05:02:30;41.13;;;17.73;;
4112;SDS011;2070;51.042;7.056;2023-02-15T05:04:56;42.67;;;15.87;;
4112;SDS011;2070;51.042;7.056;2023-02-15T05:07:21;50.13;;;17.40;;
4112;SDS011;2070;51.042;7.056;2023-02-15T05:09:46;39.20;;;14.03;;
4112;SDS011;2070;51.042;7.056;2023-02-15T05:12:11;43.37;;;14.97;;
4112;SDS011;2070;51.042;7.056;2023-02-15T05:14:36;37.93;;;16.90;;
4112;SDS011;2070;51.042;7.056;2023-02-15T05:17:02;43.23;;;16.80;;
4112;SDS011;2070;51.042;7.056;2023-02-15T05:19:28;44.67;;;17.30;;
4112;SDS011;2070;51.042;7.056;2023-02-15T05:21:53;43.03;;;16.50;;
4112;SDS011;2070;51.042;7.056;2023-02-15T05:24:18;40.83;;;16.93;;
4112;SDS011;2070;51.042;7.056;2023-02-15T05:27:02;40.30;;;14.90;;
4112;SDS011;2070;51.042;7.056;2023-02-15T05:29:46;37.67;;;17.10;;
4112;SDS011;2070;51.042;7.056;2023-02-15T05:32:14;47.80;;;16.73;;
4112;SDS011;2070;51.042;7.056;2023-02-15T05:34:39;46.23;;;17.87;;
4112;SDS011;2070;51.042;7.056;2023-02-15T05:37:05;41.47;;;14.90;;
4112;SDS011;2070;51.042;7.056;2023-02-15T05:39:30;35.93;;;14.87;;
4112;SDS011;2070;51.042;7.056;2023-02-15T05:41:58;43.77;;;15.57;;
4112;SDS011;2070;51.042;7.056;2023-02-15T05:44:23;48.33;;;18.80;;
4112;SDS011;2070;51.042;7.056;2023-02-15T05:46:48;50.97;;;16.20;;
4112;SDS011;2070;51.042;7.056;2023-02-15T05:49:13;45.60;;;17.03;;
4112;SDS011;2070;51.042;7.056;2023-02-15T05:51:38;44.00;;;15.57;;
4112;SDS011;2070;51.042;7.056;2023-02-15T05:54:04;43.60;;;17.50;;
4112;SDS011;2070;51.042;7.056;2023-02-15T05:56:29;59.83;;;18.90;;
4112;SDS011;2070;51.042;7.056;2023-02-15T05:58:54;48.97;;;18.43;;
4112;SDS011;2070;51.042;7.056;2023-02-15T06:01:19;44.37;;;18.67;;
4112;SDS011;2070;51.042;7.056;2023-02-15T06:03:47;44.83;;;17.57;;
4112;SDS011;2070;51.042;7.056;2023-02-15T06:06:12;51.07;;;17.70;;
4112;SDS011;2070;51.042;7.056;2023-02-15T06:08:38;39.93;;;15.97;;
4112;SDS011;2070;51.042;7.056;2023-02-15T06:11:03;44.90;;;17.10;;
4112;SDS011;2070;51.042;7.056;2023-02-15T06:13:29;36.67;;;16.03;;
4112;SDS011;2070;51.042;7.056;2023-02-15T06:15:54;54.00;;;17.30;;
4112;SDS011;2070;51.042;7.056;2023-02-15T06:18:19;52.53;;;16.67;;
4112;SDS011;2070;51.042;7.056;2023-02-15T06:20:45;42.33;;;19.17;;
4112;SDS011;2070;51.042;7.056;2023-02-15T06:23:10;48.07;;;20.97;;
4112;SDS011;2070;51.042;7.056;2023-02-15T06:25:35;43.73;;;16.97;;
4112;SDS011;2070;51.042;7.056;2023-02-15T06:28:01;45.30;;;16.70;;
4112;SDS011;2070;51.042;7.056;2023-02-15T06:30:26;49.37;;;17.97;;
4112;SDS011;2070;51.042;7.056;2023-02-15T06:32:51;45.57;;;18.07;;
4112;SDS011;2070;51.042;7.056;2023-02-15T06:35:16;35.67;;;14.77;;
4112;SDS011;2070;51.042;7.056;2023-02-15T06:37:41;39.33;;;17.17;;
4112;SDS011;2070;51.042;7.056;2023-02-15T06:40:07;45.07;;;18.10;;
4112;SDS011;2070;51.042;7.056;2023-02-15T06:42:33;45.60;;;16.43;;
4112;SDS011;2070;51.042;7.056;2023-02-15T06:44:58;48.23;;;17.27;;
4112;SDS011;2070;51.042;7.056;2023-02-15T06:47:25;37.63;;;15.50;;
4112;SDS011;2070;51.042;7.056;2023-02-15T06:49:50;40.70;;;17.70;;
4112;SDS011;2070;51.042;7.056;2023-02-15T06:52:15;41.63;;;17.67;;
4112;SDS011;2070;51.042;7.056;2023-02-15T06:54:40;48.70;;;19.83;;
4112;SDS011;2070;51.042;7.056;2023-02-15T06:57:05;56.50;;;16.97;;
4112;SDS011;2070;51.042;7.056;2023-02-15T06:59:31;49.67;;;16.70;;
4112;SDS011;2070;51.042;7.056;2023-02-15T07:01:56;37.53;;;17.40;;
4112;SDS011;2070;51.042;7.056;2023-02-15T07:04:21;45.87;;;15.87;;
4112;SDS011;2070;51.042;7.056;2023-02-15T07:06:47;52.63;;;18.63;;
4112;SDS011;2070;51.042;7.056;2023-02-15T07:09:12;51.70;;;17.97;;
4112;SDS011;2070;51.042;7.056;2023-02-15T07:11:37;42.70;;;16.67;;
4112;SDS011;2070;51.042;7.056;2023-02-15T07:14:21;45.57;;;16.80;;
4112;SDS011;2070;51.042;7.056;2023-02-15T07:16:46;42.83;;;17.43;;
4112;SDS011;2070;51.042;7.056;2023-02-15T07:19:12;40.23;;;17.37;;
4112;SDS011;2070;51.042;7.056;2023-02-15T07:21:37;56.03;;;17.47;;
4112;SDS011;2070;51.042;7.056;2023-02-15T07:24:02;50.37;;;17.83;;
4112;SDS011;2070;51.042;7.056;2023-02-15T07:26:28;44.73;;;17.30;;
4112;SDS011;2070;51.042;7.056;2023-02-15T07:28:53;48.30;;;17.77;;
4112;SDS011;2070;51.042;7.056;2023-02-15T07:31:18;45.37;;;17.77;;
4112;SDS011;2070;51.042;7.056;2023-02-15T07:33:43;46.63;;;18.47;;
4112;SDS011;2070;51.042;7.056;2023-02-15T07:36:09;43.23;;;17.67;;
4112;SDS011;2070;51.042;7.056;2023-02-15T07:38:38;51.90;;;20.37;;
4112;SDS011;2070;51.042;7.056;2023-02-15T07:41:04;56.17;;;18.57;;
4112;SDS011;2070;51.042;7.056;2023-02-15T07:43:32;41.47;;;17.50;;
4112;SDS011;2070;51.042;7.056;2023-02-15T07:46:00;55.50;;;20.97;;
4112;SDS011;2070;51.042;7.056;2023-02-15T07:48:26;63.20;;;23.33;;
4112;SDS011;2070;51.042;7.056;2023-02-15T07:50:52;55.20;;;22.30;;
4112;SDS011;2070;51.042;7.056;2023-02-15T07:53:17;57.20;;;20.33;;
4112;SDS011;2070;51.042;7.056;2023-02-15T07:55:42;55.10;;;18.90;;
4112;SDS011;2070;51.042;7.056;2023-02-15T07:58:07;56.80;;;18.93;;
4112;SDS011;2070;51.042;7.056;2023-02-15T08:00:32;64.93;;;28.00;;
4112;SDS011;2070;51.042;7.056;2023-02-15T08:03:17;29.10;;;13.93;;
4112;SDS011;2070;51.042;7.056;2023-02-15T08:05:43;23.43;;;12.57;;
4112;SDS011;2070;51.042;7.056;2023-02-15T08:08:10;20.47;;;11.10;;
4112;SDS011;2070;51.042;7.056;2023-02-15T08:11:39;23.80;;;12.33;;
4112;SDS011;2070;51.042;7.056;2023-02-15T08:19:03;16.47;;;10.60;;
4112;SDS011;2070;51.042;7.056;2023-02-15T08:21:29;22.60;;;10.97;;
4112;SDS011;2070;51.042;7.056;2023-02-15T08:23:54;19.60;;;10.50;;
4112;SDS011;2070;51.042;7.056;2023-02-15T08:26:20;18.77;;;9.87;;
4112;SDS011;2070;51.042;7.056;2023-02-15T08:28:45;22.80;;;11.33;;
4112;SDS011;2070;51.042;7.056;2023-02-15T08:31:11;21.63;;;10.60;;
4112;SDS011;2070;51.042;7.056;2023-02-15T08:33:37;23.73;;;10.70;;
4112;SDS011;2070;51.042;7.056;2023-02-15T08:36:11;16.33;;;9.13;;
4112;SDS011;2070;51.042;7.056;2023-02-15T08:38:37;18.67;;;9.60;;
4112;SDS011;2070;51.042;7.056;2023-02-15T08:41:24;19.33;;;10.20;;
4112;SDS011;2070;51.042;7.056;2023-02-15T08:43:51;17.10;;;10.07;;
4112;SDS011;2070;51.042;7.056;2023-02-15T08:46:17;17.73;;;10.13;;
4112;SDS011;2070;51.042;7.056;2023-02-15T08:48:43;15.20;;;8.83;;
4112;SDS011;2070;51.042;7.056;2023-02-15T08:53:40;21.23;;;10.00;;
4112;SDS011;2070;51.042;7.056;2023-02-15T08:56:06;15.67;;;10.10;;
4112;SDS011;2070;51.042;7.056;2023-02-15T08:58:31;18.00;;;9.83;;
4112;SDS011;2070;51.042;7.056;2023-02-15T09:00:57;14.17;;;8.60;;
4112;SDS011;2070;51.042;7.056;2023-02-15T09:03:22;15.50;;;9.07;;
4112;SDS011;2070;51.042;7.056;2023-02-15T09:05:48;17.23;;;10.10;;
4112;SDS011;2070;51.042;7.056;2023-02-15T09:08:13;13.57;;;8.63;;
4112;SDS011;2070;51.042;7.056;2023-02-15T09:10:38;18.47;;;10.43;;
4112;SDS011;2070;51.042;7.056;2023-02-15T09:13:03;12.53;;;8.53;;
4112;SDS011;2070;51.042;7.056;2023-02-15T09:15:29;15.70;;;8.70;;
4112;SDS011;2070;51.042;7.056;2023-02-15T09:17:54;17.90;;;9.40;;
4112;SDS011;2070;51.042;7.056;2023-02-15T09:20:19;12.20;;;8.37;;
4112;SDS011;2070;51.042;7.056;2023-02-15T09:22:44;14.13;;;8.93;;
4112;SDS011;2070;51.042;7.056;2023-02-15T09:25:09;20.97;;;11.03;;
4112;SDS011;2070;51.042;7.056;2023-02-15T09:27:35;17.60;;;9.77;;
4112;SDS011;2070;51.042;7.056;2023-02-15T09:30:03;13.87;;;7.90;;
4112;SDS011;2070;51.042;7.056;2023-02-15T09:32:28;15.27;;;9.23;;
4112;SDS011;2070;51.042;7.056;2023-02-15T09:34:54;22.90;;;10.67;;
4112;SDS011;2070;51.042;7.056;2023-02-15T09:37:19;20.67;;;10.30;;
4112;SDS011;2070;51.042;7.056;2023-02-15T09:39:44;14.20;;;8.50;;
4112;SDS011;2070;51.042;7.056;2023-02-15T10:00:32;16.80;;;8.93;;
4112;SDS011;2070;51.042;7.056;2023-02-15T10:13:30;15.43;;;9.37;;
4112;SDS011;2070;51.042;7.056;2023-02-15T10:16:01;17.30;;;9.70;;
4112;SDS011;2070;51.042;7.056;2023-02-15T10:18:38;17.40;;;8.53;;
4112;SDS011;2070;51.042;7.056;2023-02-15T10:21:12;17.43;;;9.43;;
4112;SDS011;2070;51.042;7.056;2023-02-15T10:26:27;17.77;;;9.80;;
4112;SDS011;2070;51.042;7.056;2023-02-15T10:28:59;15.73;;;9.30;;
4112;SDS011;2070;51.042;7.056;2023-02-15T10:31:43;19.03;;;8.30;;
4112;SDS011;2070;51.042;7.056;2023-02-15T10:34:17;13.10;;;8.43;;
4112;SDS011;2070;51.042;7.056;2023-02-15T10:39:57;18.30;;;8.13;;
4112;SDS011;2070;51.042;7.056;2023-02-15T11:03:26;11.50;;;6.53;;
4112;SDS011;2070;51.042;7.056;2023-02-15T11:08:25;17.73;;;8.57;;
4112;SDS011;2070;51.042;7.056;2023-02-15T11:10:52;18.13;;;9.30;;
4112;SDS011;2070;51.042;7.056;2023-02-15T11:13:19;18.67;;;9.77;;
4112;SDS011;2070;51.042;7.056;2023-02-15T11:15:53;18.63;;;8.60;;
4112;SDS011;2070;51.042;7.056;2023-02-15T11:18:26;12.73;;;7.73;;
4112;SDS011;2070;51.042;7.056;2023-02-15T11:23:41;15.87;;;8.87;;
4112;SDS011;2070;51.042;7.056;2023-02-15T11:26:11;18.37;;;8.83;;
4112;SDS011;2070;51.042;7.056;2023-02-15T11:28:39;21.23;;;7.93;;
4112;SDS011;2070;51.042;7.056;2023-02-15T11:31:23;27.70;;;11.37;;
4112;SDS011;2070;51.042;7.056;2023-02-15T11:33:53;13.70;;;7.63;;
4112;SDS011;2070;51.042;7.056;2023-02-15T11:36:21;18.17;;;7.60;;
4112;SDS011;2070;51.042;7.056;2023-02-15T11:38:47;11.00;;;6.70;;
4112;SDS011;2070;51.042;7.056;2023-02-15T11:41:15;14.23;;;8.30;;
4112;SDS011;2070;51.042;7.056;2023-02-15T11:43:43;21.23;;;9.17;;
4112;SDS011;2070;51.042;7.056;2023-02-15T11:46:12;11.60;;;8.37;;
4112;SDS011;2070;51.042;7.056;2023-02-15T11:48:38;16.43;;;8.33;;
4112;SDS011;2070;51.042;7.056;2023-02-15T11:51:04;11.03;;;7.70;;
4112;SDS011;2070;51.042;7.056;2023-02-15T11:53:33;15.50;;;9.27;;
4112;SDS011;2070;51.042;7.056;2023-02-15T11:56:00;18.37;;;9.53;;
4112;SDS011;2070;51.042;7.056;2023-02-15T12:01:00;15.73;;;7.70;;
4112;SDS011;2070;51.042;7.056;2023-02-15T12:03:41;22.30;;;12.83;;
4112;SDS011;2070;51.042;7.056;2023-02-15T12:06:11;19.53;;;7.43;;
4112;SDS011;2070;51.042;7.056;2023-02-15T12:08:38;19.67;;;9.77;;
4112;SDS011;2070;51.042;7.056;2023-02-15T12:14:00;17.17;;;8.53;;
4112;SDS011;2070;51.042;7.056;2023-02-15T12:16:26;16.77;;;9.77;;
4112;SDS011;2070;51.042;7.056;2023-02-15T12:18:53;15.23;;;7.83;;
4112;SDS011;2070;51.042;7.056;2023-02-15T12:21:53;13.37;;;8.07;;
4112;SDS011;2070;51.042;7.056;2023-02-15T12:24:17;25.17;;;8.77;;
4112;SDS011;2070;51.042;7.056;2023-02-15T12:26:43;18.73;;;8.80;;
4112;SDS011;2070;51.042;7.056;2023-02-15T12:29:17;19.10;;;8.10;;
4112;SDS011;2070;51.042;7.056;2023-02-15T12:31:46;23.27;;;8.83;;
4112;SDS011;2070;51.042;7.056;2023-02-15T12:34:14;16.90;;;7.87;;
4112;SDS011;2070;51.042;7.056;2023-02-15T12:36:47;19.67;;;8.97;;
4112;SDS011;2070;51.042;7.056;2023-02-15T12:39:22;24.27;;;9.67;;
4112;SDS011;2070;51.042;7.056;2023-02-15T12:47:03;17.90;;;8.73;;
4112;SDS011;2070;51.042;7.056;2023-02-15T12:49:29;17.10;;;9.53;;
4112;SDS011;2070;51.042;7.056;2023-02-15T12:51:56;17.00;;;9.07;;
4112;SDS011;2070;51.042;7.056;2023-02-15T12:54:32;18.00;;;9.63;;
4112;SDS011;2070;51.042;7.056;2023-02-15T12:56:59;14.53;;;7.00;;
4112;SDS011;2070;51.042;7.056;2023-02-15T12:59:37;17.47;;;8.10;;
4112;SDS011;2070;51.042;7.056;2023-02-15T13:02:15;16.53;;;7.80;;
4112;SDS011;2070;51.042;7.056;2023-02-15T13:04:47;20.10;;;9.87;;
4112;SDS011;2070;51.042;7.056;2023-02-15T13:07:13;17.80;;;8.93;;
4112;SDS011;2070;51.042;7.056;2023-02-15T13:09:39;14.17;;;7.60;;
4112;SDS011;2070;51.042;7.056;2023-02-15T13:12:15;16.90;;;8.67;;
4112;SDS011;2070;51.042;7.056;2023-02-15T13:14:45;14.80;;;9.20;;
4112;SDS011;2070;51.042;7.056;2023-02-15T13:17:11;23.57;;;9.20;;
4112;SDS011;2070;51.042;7.056;2023-02-15T13:19:39;16.60;;;9.00;;
4112;SDS011;2070;51.042;7.056;2023-02-15T13:22:07;23.83;;;9.23;;
4112;SDS011;2070;51.042;7.056;2023-02-15T13:24:39;16.30;;;8.80;;
4112;SDS011;2070;51.042;7.056;2023-02-15T13:27:07;20.53;;;9.53;;
4112;SDS011;2070;51.042;7.056;2023-02-15T13:29:35;20.53;;;8.87;;
4112;SDS011;2070;51.042;7.056;2023-02-15T13:32:12;21.23;;;8.60;;
4112;SDS011;2070;51.042;7.056;2023-02-15T13:34:40;13.27;;;8.87;;
4112;SDS011;2070;51.042;7.056;2023-02-15T13:39:47;15.53;;;8.97;;
4112;SDS011;2070;51.042;7.056;2023-02-15T13:42:25;30.43;;;11.30;;
4112;SDS011;2070;51.042;7.056;2023-02-15T13:47:27;23.43;;;9.70;;
4112;SDS011;2070;51.042;7.056;2023-02-15T13:52:48;19.33;;;9.27;;
4112;SDS011;2070;51.042;7.056;2023-02-15T14:16:20;17.80;;;9.17;;
4112;SDS011;2070;51.042;7.056;2023-02-15T14:21:19;15.70;;;8.00;;
4112;SDS011;2070;51.042;7.056;2023-02-15T14:26:15;15.30;;;8.97;;
4112;SDS011;2070;51.042;7.056;2023-02-15T14:31:15;17.17;;;8.80;;
4112;SDS011;2070;51.042;7.056;2023-02-15T14:33:55;14.53;;;7.80;;
4112;SDS011;2070;51.042;7.056;2023-02-15T14:36:21;28.13;;;9.20;;
4112;SDS011;2070;51.042;7.056;2023-02-15T14:41:39;15.47;;;9.30;;
4112;SDS011;2070;51.042;7.056;2023-02-15T14:46:52;12.67;;;7.93;;
4112;SDS011;2070;51.042;7.056;2023-02-15T14:56:41;22.70;;;8.30;;
4112;SDS011;2070;51.042;7.056;2023-02-15T14:59:13;19.53;;;9.00;;
4112;SDS011;2070;51.042;7.056;2023-02-15T15:01:39;22.90;;;9.30;;
4112;SDS011;2070;51.042;7.056;2023-02-15T15:04:15;27.07;;;8.90;;
4112;SDS011;2070;51.042;7.056;2023-02-15T15:06:54;21.47;;;9.57;;
4112;SDS011;2070;51.042;7.056;2023-02-15T15:09:24;35.47;;;9.90;;
4112;SDS011;2070;51.042;7.056;2023-02-15T15:11:51;21.40;;;9.13;;
4112;SDS011;2070;51.042;7.056;2023-02-15T15:16:57;17.53;;;9.00;;
4112;SDS011;2070;51.042;7.056;2023-02-15T15:22:06;15.03;;;8.30;;
4112;SDS011;2070;51.042;7.056;2023-02-15T15:29:50;16.23;;;8.93;;
4112;SDS011;2070;51.042;7.056;2023-02-15T15:32:16;24.43;;;10.43;;
4112;SDS011;2070;51.042;7.056;2023-02-15T15:37:26;17.40;;;8.63;;
4112;SDS011;2070;51.042;7.056;2023-02-15T15:45:25;14.47;;;8.77;;
4112;SDS011;2070;51.042;7.056;2023-02-15T15:50:31;19.33;;;9.13;;
4112;SDS011;2070;51.042;7.056;2023-02-15T15:52:57;23.73;;;11.77;;
4112;SDS011;2070;51.042;7.056;2023-02-15T15:55:24;21.17;;;9.70;;
4112;SDS011;2070;51.042;7.056;2023-02-15T15:57:51;18.33;;;9.70;;
4112;SDS011;2070;51.042;7.056;2023-02-15T16:02:54;18.47;;;10.33;;
4112;SDS011;2070;51.042;7.056;2023-02-15T16:05:22;20.03;;;9.37;;
4112;SDS011;2070;51.042;7.056;2023-02-15T16:07:48;24.63;;;9.57;;
4112;SDS011;2070;51.042;7.056;2023-02-15T16:10:23;16.83;;;9.30;;
4112;SDS011;2070;51.042;7.056;2023-02-15T16:12:49;30.63;;;8.83;;
4112;SDS011;2070;51.042;7.056;2023-02-15T16:17:41;19.70;;;10.17;;
4112;SDS011;2070;51.042;7.056;2023-02-15T16:20:15;26.30;;;10.03;;
4112;SDS011;2070;51.042;7.056;2023-02-15T16:22:43;17.90;;;8.50;;
4112;SDS011;2070;51.042;7.056;2023-02-15T16:25:21;33.40;;;9.53;;
4112;SDS011;2070;51.042;7.056;2023-02-15T16:27:49;19.13;;;9.23;;
4112;SDS011;2070;51.042;7.056;2023-02-15T16:30:23;17.70;;;8.40;;
4112;SDS011;2070;51.042;7.056;2023-02-15T16:32:48;17.23;;;9.30;;
4112;SDS011;2070;51.042;7.056;2023-02-15T16:35:16;19.67;;;7.87;;
4112;SDS011;2070;51.042;7.056;2023-02-15T16:37:41;15.13;;;7.57;;
4112;SDS011;2070;51.042;7.056;2023-02-15T16:40:12;23.33;;;9.63;;
4112;SDS011;2070;51.042;7.056;2023-02-15T16:43:03;19.37;;;9.10;;
4112;SDS011;2070;51.042;7.056;2023-02-15T16:45:30;22.70;;;9.33;;
4112;SDS011;2070;51.042;7.056;2023-02-15T16:47:57;20.03;;;8.83;;
4112;SDS011;2070;51.042;7.056;2023-02-15T16:50:26;16.93;;;9.43;;
4112;SDS011;2070;51.042;7.056;2023-02-15T16:52:53;54.38;;;13.43;;
4112;SDS011;2070;51.042;7.056;2023-02-15T16:55:23;27.53;;;10.77;;
4112;SDS011;2070;51.042;7.056;2023-02-15T16:57:49;34.47;;;10.60;;
4112;SDS011;2070;51.042;7.056;2023-02-15T17:00:19;20.03;;;10.50;;
4112;SDS011;2070;51.042;7.056;2023-02-15T17:03:02;21.13;;;9.50;;
4112;SDS011;2070;51.042;7.056;2023-02-15T17:05:47;23.30;;;12.33;;
4112;SDS011;2070;51.042;7.056;2023-02-15T17:08:26;23.63;;;10.27;;
4112;SDS011;2070;51.042;7.056;2023-02-15T17:13:23;18.60;;;9.50;;
4112;SDS011;2070;51.042;7.056;2023-02-15T17:18:24;20.27;;;9.67;;
4112;SDS011;2070;51.042;7.056;2023-02-15T17:20:51;27.97;;;10.93;;
4112;SDS011;2070;51.042;7.056;2023-02-15T17:23:37;15.83;;;9.83;;
4112;SDS011;2070;51.042;7.056;2023-02-15T17:26:11;23.57;;;10.13;;
4112;SDS011;2070;51.042;7.056;2023-02-15T17:28:40;20.10;;;10.33;;
4112;SDS011;2070;51.042;7.056;2023-02-15T17:31:12;23.30;;;11.43;;
4112;SDS011;2070;51.042;7.056;2023-02-15T17:33:38;27.23;;;10.77;;
4112;SDS011;2070;51.042;7.056;2023-02-15T17:38:30;18.20;;;8.80;;
4112;SDS011;2070;51.042;7.056;2023-02-15T17:40:55;28.80;;;10.27;;
4112;SDS011;2070;51.042;7.056;2023-02-15T17:43:22;16.80;;;9.47;;
4112;SDS011;2070;51.042;7.056;2023-02-15T17:45:48;32.60;;;11.60;;
4112;SDS011;2070;51.042;7.056;2023-02-15T17:48:20;31.40;;;11.27;;
4112;SDS011;2070;51.042;7.056;2023-02-15T17:50:46;24.20;;;10.20;;
4112;SDS011;2070;51.042;7.056;2023-02-15T17:53:12;22.37;;;9.87;;
4112;SDS011;2070;51.042;7.056;2023-02-15T17:55:38;20.00;;;8.93;;
4112;SDS011;2070;51.042;7.056;2023-02-15T17:58:04;25.30;;;9.80;;
4112;SDS011;2070;51.042;7.056;2023-02-15T18:00:30;27.90;;;9.10;;
4112;SDS011;2070;51.042;7.056;2023-02-15T18:03:14;21.40;;;10.90;;
4112;SDS011;2070;51.042;7.056;2023-02-15T18:05:58;24.37;;;9.70;;
4112;SDS011;2070;51.042;7.056;2023-02-15T18:08:42;18.80;;;10.37;;
4112;SDS011;2070;51.042;7.056;2023-02-15T18:11:26;43.10;;;12.52;;
4112;SDS011;2070;51.042;7.056;2023-02-15T18:14:04;19.50;;;8.77;;
4112;SDS011;2070;51.042;7.056;2023-02-15T18:16:31;17.77;;;9.70;;
4112;SDS011;2070;51.042;7.056;2023-02-15T18:18:57;26.93;;;9.83;;
4112;SDS011;2070;51.042;7.056;2023-02-15T18:21:22;24.03;;;11.70;;